Sea Coast — WDC9153 — position and weather

sailwx.info

Track history (hours):
 
Tides and Currents Weather Stations Pressure Air Temp Water Temp Dewpoint Dewpoint Depression Visibility Wind Speed Wind Dir Waves Ship Positions

Sea Coast

Owner: Dann Marine Towing, LC, Chesapeake City, MD. More information available from US FCC via Universal Licensing System and Coast Guard Vessel Documentation Center.

Last reported at 2018-Feb-03 05:50 UTC. Time now 2018-Feb-20 01:38 UTC.
Position N 31°47' W 081°10'.
Warning: this ship's position is 16 days out of date.

; draft 2.7 m.

Type: Tug. MMSI: 367098280.

Date/timePositionNaut miles runAvg speedWind from/ knotsBaromVisibWave heightAir tempDewpointWater temp
2018-Feb-03 05:50N 31°47' W 081°10'2 5.2
2018-Feb-03 05:30N 31°49' W 081°11'3 4.4
2018-Feb-03 04:50N 31°51' W 081°09'3 4.1
2018-Feb-03 04:00N 31°52' W 081°05'3 5.3
2018-Feb-03 03:31N 31°54' W 081°06'6 3.9
2018-Feb-03 02:00N 31°59' W 081°02'2 4.2
2018-Feb-03 01:31N 32°01' W 081°02'2 3.1
2018-Feb-03 01:00N 32°03' W 081°02'2 4.3
2018-Feb-03 00:30N 32°04' W 081°01'2 4.5
2018-Feb-03 00:00N 32°04' W 080°58'2 3.7
2018-Feb-02 23:30N 32°05' W 080°56'1 2.8
2018-Feb-02 23:00N 32°05' W 080°55'2 3.1
2018-Feb-02 22:30N 32°07' W 080°54'0 0.0
2018-Feb-02 22:01N 32°07' W 080°54'0 0.1
2018-Feb-02 21:30N 32°07' W 080°54'0 0.1
2018-Feb-02 21:01N 32°07' W 080°54'1 2.4
2018-Feb-02 20:31N 32°08' W 080°53'2 3.8
2018-Feb-02 19:58N 32°09' W 080°51'6 5.6
2018-Feb-02 18:57N 32°14' W 080°47'  
2018-Jan-31 01:41N 34°43' W 076°53'1 4.8
2018-Jan-31 01:30N 34°43' W 076°52'2 3.5
2018-Jan-31 00:59N 34°43' W 076°50'6 6.3
2018-Jan-31 00:01N 34°43' W 076°43'1 1.0
2018-Jan-30 23:30N 34°43' W 076°42'0 0.0
2018-Jan-30 23:00N 34°43' W 076°42'0 0.0
2018-Jan-30 22:30N 34°43' W 076°42'0 0.0
2018-Jan-30 21:30N 34°43' W 076°42'0 0.0
2018-Jan-30 21:00N 34°43' W 076°42'0 0.0
2018-Jan-30 20:30N 34°43' W 076°42'0 0.0
2018-Jan-30 20:00N 34°43' W 076°42'0 0.0
2018-Jan-30 19:30N 34°43' W 076°42'0 0.0
2018-Jan-30 19:00N 34°43' W 076°42'2 4.2
2018-Jan-30 18:30N 34°45' W 076°41'3 5.7
2018-Jan-30 18:01N 34°48' W 076°41'3 6.5
2018-Jan-30 17:30N 34°51' W 076°41'3 6.1
2018-Jan-30 16:59N 34°54' W 076°41'112 2.4
2018-Jan-28 18:24N 36°43' W 076°13'2 4.1
2018-Jan-28 18:00N 36°43' W 076°15'0 0.4
2018-Jan-28 17:27N 36°43' W 076°15'0 0.5
2018-Jan-28 17:00N 36°44' W 076°15'2 3.0
2018-Jan-28 16:30N 36°44' W 076°17'2 4.3
2018-Jan-28 16:00N 36°46' W 076°18'2 3.7
2018-Jan-28 15:30N 36°48' W 076°18'3 5.0
2018-Jan-28 15:00N 36°50' W 076°18'113 4.6
2018-Jan-27 14:16N 38°43' W 076°28'1 4.7
2018-Jan-27 13:59N 38°44' W 076°28'2 4.8
2018-Jan-27 13:28N 38°47' W 076°27'2 5.0
2018-Jan-27 13:00N 38°49' W 076°27'3 5.0
2018-Jan-27 12:30N 38°52' W 076°26'3 5.3
2018-Jan-27 12:00N 38°54' W 076°25'3 5.1
2018-Jan-27 11:30N 38°57' W 076°26'1 2.9
2018-Jan-27 11:00N 38°58' W 076°26'0 0.3
2018-Jan-27 10:30N 38°58' W 076°26'0 0.1
2018-Jan-27 10:00N 38°58' W 076°26'0 0.3
2018-Jan-27 09:30N 38°58' W 076°26'1 1.8
2018-Jan-27 09:00N 38°57' W 076°26'1 2.0
2018-Jan-27 08:30N 38°56' W 076°26'1 1.5
2018-Jan-27 08:00N 38°56' W 076°25'3 4.9
2018-Jan-27 07:26N 38°59' W 076°24'13 5.5
2018-Jan-27 05:04N 39°11' W 076°17'1 6.2
2018-Jan-27 04:58N 39°11' W 076°17'5 6.3
2018-Jan-27 04:11N 39°16' W 076°14'1 7.1
2018-Jan-27 04:00N 39°17' W 076°14'3 7.0
2018-Jan-27 03:30N 39°20' W 076°11'4 7.2
2018-Jan-27 03:00N 39°22' W 076°08'3 7.0
2018-Jan-27 02:31N 39°24' W 076°04'3 6.8
2018-Jan-27 02:01N 39°26' W 076°00'3 6.6
2018-Jan-27 01:30N 39°29' W 075°58'3 6.2
2018-Jan-27 01:00N 39°30' W 075°54'3 6.1
2018-Jan-27 00:30N 39°32' W 075°51'3 5.6
2018-Jan-27 00:00N 39°32' W 075°47'3 5.5
2018-Jan-26 23:30N 39°33' W 075°44'2 5.0
2018-Jan-26 23:01N 39°33' W 075°40'2 4.5
2018-Jan-26 22:30N 39°33' W 075°38'2 4.4
2018-Jan-26 22:01N 39°34' W 075°35'2 4.4
2018-Jan-26 21:30N 39°33' W 075°32'2 3.9
2018-Jan-26 21:00N 39°34' W 075°30'1 1.7
2018-Jan-26 20:30N 39°34' W 075°29'0 0.0
2018-Jan-26 20:00N 39°34' W 075°29'2 4.1
2018-Jan-26 19:30N 39°34' W 075°32'3 5.2
2018-Jan-26 19:00N 39°31' W 075°33'2 3.4
2018-Jan-26 18:30N 39°29' W 075°33'3 6.3
2018-Jan-26 17:59N 39°33' W 075°32'3 5.3
2018-Jan-26 17:30N 39°34' W 075°30'3 6.6
2018-Jan-26 17:00N 39°32' W 075°33'3 5.9
2018-Jan-26 16:30N 39°29' W 075°33'510.1
2018-Jan-26 15:59N 39°34' W 075°33'510.4
2018-Jan-26 15:30N 39°39' W 075°33'611.6
2018-Jan-26 14:59N 39°45' W 075°30'510.6
2018-Jan-26 14:30N 39°48' W 075°25'5 9.3
2018-Jan-26 14:00N 39°51' W 075°20'4 8.7
2018-Jan-26 13:30N 39°51' W 075°14'3 5.7
2018-Jan-26 13:00N 39°53' W 075°12'0 0.0
2018-Jan-26 12:28N 39°53' W 075°12'0 0.0
2018-Jan-26 12:00N 39°53' W 075°12'0 0.0
2018-Jan-26 11:29N 39°53' W 075°12'0 0.1
2018-Jan-26 11:00N 39°54' W 075°12'0 0.0
2018-Jan-26 10:30N 39°54' W 075°12'0 0.0
2018-Jan-26 10:00N 39°54' W 075°12'0 0.0
2018-Jan-26 09:30N 39°54' W 075°12'0 0.0
2018-Jan-26 09:00N 39°54' W 075°12'0 0.0
2018-Jan-26 08:30N 39°54' W 075°12'0 0.0
2018-Jan-26 08:00N 39°54' W 075°12'0 0.0
2018-Jan-26 07:30N 39°54' W 075°12'0 0.0
2018-Jan-26 07:00N 39°54' W 075°12'0 0.0
2018-Jan-26 06:30N 39°54' W 075°12'0 0.0
2018-Jan-26 06:00N 39°54' W 075°12'0 0.0
2018-Jan-26 05:30N 39°54' W 075°12'0 0.0
2018-Jan-26 05:00N 39°54' W 075°12'0 0.0
2018-Jan-26 04:30N 39°54' W 075°12'0 0.0
2018-Jan-26 04:00N 39°54' W 075°12'0 0.0
2018-Jan-26 03:30N 39°54' W 075°12'0 0.0
2018-Jan-26 02:59N 39°54' W 075°12'0 0.0
2018-Jan-26 02:30N 39°54' W 075°12'0 0.0
2018-Jan-26 02:00N 39°54' W 075°12'0 0.0
2018-Jan-26 01:30N 39°54' W 075°12'0 0.0
2018-Jan-26 01:00N 39°54' W 075°12'0 0.0
2018-Jan-26 00:30N 39°54' W 075°12'0 0.0
2018-Jan-26 00:00N 39°54' W 075°12'0 0.0
2018-Jan-25 23:30N 39°54' W 075°12'0 0.0
2018-Jan-25 23:00N 39°54' W 075°12'0 0.0
2018-Jan-25 22:30N 39°54' W 075°12'0 0.0
2018-Jan-25 22:00N 39°54' W 075°12'0 0.0
2018-Jan-25 21:30N 39°54' W 075°12'0 0.0
2018-Jan-25 21:00N 39°54' W 075°12'0 0.0
2018-Jan-25 20:30N 39°54' W 075°12'0 0.2
2018-Jan-25 20:01N 39°53' W 075°12'0 0.0
2018-Jan-25 19:30N 39°53' W 075°12'0 0.0
2018-Jan-25 19:00N 39°53' W 075°12'0 0.0
2018-Jan-25 18:30N 39°53' W 075°12'0 0.0
2018-Jan-25 18:00N 39°53' W 075°12'0 0.0
2018-Jan-25 17:30N 39°53' W 075°12'0 0.0
2018-Jan-25 17:00N 39°53' W 075°12'0 0.1
2018-Jan-25 16:30N 39°54' W 075°12'0 0.0
2018-Jan-25 16:00N 39°54' W 075°12'0 0.0
2018-Jan-25 15:30N 39°54' W 075°12'0 0.1
2018-Jan-25 15:00N 39°54' W 075°12'0 0.0
2018-Jan-25 14:30N 39°54' W 075°12'0 0.0
2018-Jan-25 14:00N 39°54' W 075°12'0 0.1
2018-Jan-25 13:30N 39°54' W 075°12'0 0.0
2018-Jan-25 13:00N 39°54' W 075°12'0 0.0
2018-Jan-25 12:30N 39°54' W 075°12'0 0.0
2018-Jan-25 12:01N 39°54' W 075°12'0 0.0
2018-Jan-25 11:30N 39°54' W 075°12'0 0.0
2018-Jan-25 11:00N 39°54' W 075°12'0 0.0
2018-Jan-25 10:30N 39°54' W 075°12'0 0.0
2018-Jan-25 10:00N 39°54' W 075°12'0 0.0
2018-Jan-25 09:30N 39°54' W 075°12'0 0.0
2018-Jan-25 09:00N 39°54' W 075°12'0 0.0
2018-Jan-25 08:30N 39°54' W 075°12'0 0.0
2018-Jan-25 08:01N 39°54' W 075°12'0 0.0
2018-Jan-25 07:30N 39°54' W 075°12'0 0.0
2018-Jan-25 07:00N 39°54' W 075°12'0 0.0
2018-Jan-25 06:30N 39°54' W 075°12'0 0.0
2018-Jan-25 06:00N 39°54' W 075°12'0 0.0
2018-Jan-25 05:30N 39°54' W 075°12'0 0.0
2018-Jan-25 05:00N 39°54' W 075°12'0 0.0
2018-Jan-25 04:30N 39°54' W 075°12'0 0.0
2018-Jan-25 04:00N 39°54' W 075°12'0 0.0
2018-Jan-25 03:30N 39°54' W 075°12'0 0.0
2018-Jan-25 03:00N 39°54' W 075°12'0 0.0
2018-Jan-25 02:30N 39°54' W 075°12'0 0.0
2018-Jan-25 02:00N 39°54' W 075°12'0 0.0
2018-Jan-25 01:30N 39°54' W 075°12'0 0.0
2018-Jan-25 01:00N 39°54' W 075°12'0 0.0
2018-Jan-25 00:30N 39°54' W 075°12'0 0.0
2018-Jan-25 00:00N 39°54' W 075°12'0 0.0
2018-Jan-24 23:30N 39°54' W 075°12'0 0.0
2018-Jan-24 22:59N 39°54' W 075°12'0 0.0
2018-Jan-24 22:30N 39°54' W 075°12'0 0.0
2018-Jan-24 22:00N 39°54' W 075°12'0 0.0
2018-Jan-24 21:30N 39°54' W 075°12'4 8.1
2018-Jan-24 21:00N 39°51' W 075°16'611.1
2018-Jan-24 20:30N 39°49' W 075°23'510.8
2018-Jan-24 20:00N 39°46' W 075°28'611.3
2018-Jan-24 19:30N 39°41' W 075°31'5 9.8
2018-Jan-24 19:00N 39°37' W 075°35'5 9.3
2018-Jan-24 18:30N 39°33' W 075°32'3 6.8
2018-Jan-24 18:00N 39°29' W 075°33'0 0.0
2018-Jan-24 17:30N 39°29' W 075°33'0 0.0
2018-Jan-24 17:00N 39°29' W 075°33'0 0.0
2018-Jan-24 16:30N 39°29' W 075°33'0 0.0
2018-Jan-24 16:00N 39°29' W 075°33'0 0.0
2018-Jan-24 15:30N 39°29' W 075°33'0 0.0
2018-Jan-24 15:00N 39°29' W 075°33'0 0.0
2018-Jan-24 14:30N 39°29' W 075°33'0 0.0
2018-Jan-24 14:00N 39°29' W 075°33'0 0.0
2018-Jan-24 13:30N 39°29' W 075°33'0 0.0
2018-Jan-24 13:00N 39°29' W 075°33'0 0.0
2018-Jan-24 12:30N 39°29' W 075°33'0 0.0
2018-Jan-24 12:00N 39°29' W 075°33'0 0.0
2018-Jan-24 11:30N 39°29' W 075°33'0 0.0
2018-Jan-24 11:00N 39°29' W 075°33'0 0.0
2018-Jan-24 10:30N 39°29' W 075°33'0 0.1
2018-Jan-24 10:00N 39°29' W 075°33'0 0.0
2018-Jan-24 09:30N 39°29' W 075°33'0 0.0
2018-Jan-24 09:00N 39°29' W 075°33'0 0.0
2018-Jan-24 08:29N 39°29' W 075°33'0 0.0
2018-Jan-24 08:00N 39°29' W 075°33'0 0.0
2018-Jan-24 07:30N 39°29' W 075°33'0 0.0
2018-Jan-24 07:00N 39°29' W 075°33'0 0.0
2018-Jan-24 06:30N 39°29' W 075°33'0 0.0
2018-Jan-24 06:00N 39°29' W 075°33'  
Track history (hours):
 
Tides and Currents Weather Stations Pressure Air Temp Water Temp Dewpoint Dewpoint Depression Visibility Wind Speed Wind Dir Waves Ship Positions

Sea Coast

Owner: Dann Marine Towing, LC, Chesapeake City, MD. More information available from US FCC via Universal Licensing System and Coast Guard Vessel Documentation Center.

Last reported at 2018-Feb-03 05:50 UTC. Time now 2018-Feb-20 01:38 UTC.
Position N 31°47' W 081°10'.
Warning: this ship's position is 16 days out of date.

; draft 2.7 m.

Type: Tug. MMSI: 367098280.

Date/timePositionNaut miles runAvg speedWind from/ knotsBaromVisibWave heightAir tempDewpointWater temp
2018-Feb-03 05:50N 31°47' W 081°10'2 5.2
2018-Feb-03 05:30N 31°49' W 081°11'3 4.4
2018-Feb-03 04:50N 31°51' W 081°09'3 4.1
2018-Feb-03 04:00N 31°52' W 081°05'3 5.3
2018-Feb-03 03:31N 31°54' W 081°06'6 3.9
2018-Feb-03 02:00N 31°59' W 081°02'2 4.2
2018-Feb-03 01:31N 32°01' W 081°02'2 3.1
2018-Feb-03 01:00N 32°03' W 081°02'2 4.3
2018-Feb-03 00:30N 32°04' W 081°01'2 4.5
2018-Feb-03 00:00N 32°04' W 080°58'2 3.7
2018-Feb-02 23:30N 32°05' W 080°56'1 2.8
2018-Feb-02 23:00N 32°05' W 080°55'2 3.1
2018-Feb-02 22:30N 32°07' W 080°54'0 0.0
2018-Feb-02 22:01N 32°07' W 080°54'0 0.1
2018-Feb-02 21:30N 32°07' W 080°54'0 0.1
2018-Feb-02 21:01N 32°07' W 080°54'1 2.4
2018-Feb-02 20:31N 32°08' W 080°53'2 3.8
2018-Feb-02 19:58N 32°09' W 080°51'6 5.6
2018-Feb-02 18:57N 32°14' W 080°47'  
2018-Jan-31 01:41N 34°43' W 076°53'1 4.8
2018-Jan-31 01:30N 34°43' W 076°52'2 3.5
2018-Jan-31 00:59N 34°43' W 076°50'6 6.3
2018-Jan-31 00:01N 34°43' W 076°43'1 1.0
2018-Jan-30 23:30N 34°43' W 076°42'0 0.0
2018-Jan-30 23:00N 34°43' W 076°42'0 0.0
2018-Jan-30 22:30N 34°43' W 076°42'0 0.0
2018-Jan-30 21:30N 34°43' W 076°42'0 0.0
2018-Jan-30 21:00N 34°43' W 076°42'0 0.0
2018-Jan-30 20:30N 34°43' W 076°42'0 0.0
2018-Jan-30 20:00N 34°43' W 076°42'0 0.0
2018-Jan-30 19:30N 34°43' W 076°42'0 0.0
2018-Jan-30 19:00N 34°43' W 076°42'2 4.2
2018-Jan-30 18:30N 34°45' W 076°41'3 5.7
2018-Jan-30 18:01N 34°48' W 076°41'3 6.5
2018-Jan-30 17:30N 34°51' W 076°41'3 6.1
2018-Jan-30 16:59N 34°54' W 076°41'112 2.4
2018-Jan-28 18:24N 36°43' W 076°13'2 4.1
2018-Jan-28 18:00N 36°43' W 076°15'0 0.4
2018-Jan-28 17:27N 36°43' W 076°15'0 0.5
2018-Jan-28 17:00N 36°44' W 076°15'2 3.0
2018-Jan-28 16:30N 36°44' W 076°17'2 4.3
2018-Jan-28 16:00N 36°46' W 076°18'2 3.7
2018-Jan-28 15:30N 36°48' W 076°18'3 5.0
2018-Jan-28 15:00N 36°50' W 076°18'113 4.6
2018-Jan-27 14:16N 38°43' W 076°28'1 4.7
2018-Jan-27 13:59N 38°44' W 076°28'2 4.8
2018-Jan-27 13:28N 38°47' W 076°27'2 5.0
2018-Jan-27 13:00N 38°49' W 076°27'3 5.0
2018-Jan-27 12:30N 38°52' W 076°26'3 5.3
2018-Jan-27 12:00N 38°54' W 076°25'3 5.1
2018-Jan-27 11:30N 38°57' W 076°26'1 2.9
2018-Jan-27 11:00N 38°58' W 076°26'0 0.3
2018-Jan-27 10:30N 38°58' W 076°26'0 0.1
2018-Jan-27 10:00N 38°58' W 076°26'0 0.3
2018-Jan-27 09:30N 38°58' W 076°26'1 1.8
2018-Jan-27 09:00N 38°57' W 076°26'1 2.0
2018-Jan-27 08:30N 38°56' W 076°26'1 1.5
2018-Jan-27 08:00N 38°56' W 076°25'3 4.9
2018-Jan-27 07:26N 38°59' W 076°24'13 5.5
2018-Jan-27 05:04N 39°11' W 076°17'1 6.2
2018-Jan-27 04:58N 39°11' W 076°17'5 6.3
2018-Jan-27 04:11N 39°16' W 076°14'1 7.1
2018-Jan-27 04:00N 39°17' W 076°14'3 7.0
2018-Jan-27 03:30N 39°20' W 076°11'4 7.2
2018-Jan-27 03:00N 39°22' W 076°08'3 7.0
2018-Jan-27 02:31N 39°24' W 076°04'3 6.8
2018-Jan-27 02:01N 39°26' W 076°00'3 6.6
2018-Jan-27 01:30N 39°29' W 075°58'3 6.2
2018-Jan-27 01:00N 39°30' W 075°54'3 6.1
2018-Jan-27 00:30N 39°32' W 075°51'3 5.6
2018-Jan-27 00:00N 39°32' W 075°47'3 5.5
2018-Jan-26 23:30N 39°33' W 075°44'2 5.0
2018-Jan-26 23:01N 39°33' W 075°40'2 4.5
2018-Jan-26 22:30N 39°33' W 075°38'2 4.4
2018-Jan-26 22:01N 39°34' W 075°35'2 4.4
2018-Jan-26 21:30N 39°33' W 075°32'2 3.9
2018-Jan-26 21:00N 39°34' W 075°30'1 1.7
2018-Jan-26 20:30N 39°34' W 075°29'0 0.0
2018-Jan-26 20:00N 39°34' W 075°29'2 4.1
2018-Jan-26 19:30N 39°34' W 075°32'3 5.2
2018-Jan-26 19:00N 39°31' W 075°33'2 3.4
2018-Jan-26 18:30N 39°29' W 075°33'3 6.3
2018-Jan-26 17:59N 39°33' W 075°32'3 5.3
2018-Jan-26 17:30N 39°34' W 075°30'3 6.6
2018-Jan-26 17:00N 39°32' W 075°33'3 5.9
2018-Jan-26 16:30N 39°29' W 075°33'510.1
2018-Jan-26 15:59N 39°34' W 075°33'510.4
2018-Jan-26 15:30N 39°39' W 075°33'611.6
2018-Jan-26 14:59N 39°45' W 075°30'510.6
2018-Jan-26 14:30N 39°48' W 075°25'5 9.3
2018-Jan-26 14:00N 39°51' W 075°20'4 8.7
2018-Jan-26 13:30N 39°51' W 075°14'3 5.7
2018-Jan-26 13:00N 39°53' W 075°12'0 0.0
2018-Jan-26 12:28N 39°53' W 075°12'0 0.0
2018-Jan-26 12:00N 39°53' W 075°12'0 0.0
2018-Jan-26 11:29N 39°53' W 075°12'0 0.1
2018-Jan-26 11:00N 39°54' W 075°12'0 0.0
2018-Jan-26 10:30N 39°54' W 075°12'0 0.0
2018-Jan-26 10:00N 39°54' W 075°12'0 0.0
2018-Jan-26 09:30N 39°54' W 075°12'0 0.0
2018-Jan-26 09:00N 39°54' W 075°12'0 0.0
2018-Jan-26 08:30N 39°54' W 075°12'0 0.0
2018-Jan-26 08:00N 39°54' W 075°12'0 0.0
2018-Jan-26 07:30N 39°54' W 075°12'0 0.0
2018-Jan-26 07:00N 39°54' W 075°12'0 0.0
2018-Jan-26 06:30N 39°54' W 075°12'0 0.0
2018-Jan-26 06:00N 39°54' W 075°12'0 0.0
2018-Jan-26 05:30N 39°54' W 075°12'0 0.0
2018-Jan-26 05:00N 39°54' W 075°12'0 0.0
2018-Jan-26 04:30N 39°54' W 075°12'0 0.0
2018-Jan-26 04:00N 39°54' W 075°12'0 0.0
2018-Jan-26 03:30N 39°54' W 075°12'0 0.0
2018-Jan-26 02:59N 39°54' W 075°12'0 0.0
2018-Jan-26 02:30N 39°54' W 075°12'0 0.0
2018-Jan-26 02:00N 39°54' W 075°12'0 0.0
2018-Jan-26 01:30N 39°54' W 075°12'0 0.0
2018-Jan-26 01:00N 39°54' W 075°12'0 0.0
2018-Jan-26 00:30N 39°54' W 075°12'0 0.0
2018-Jan-26 00:00N 39°54' W 075°12'0 0.0
2018-Jan-25 23:30N 39°54' W 075°12'0 0.0
2018-Jan-25 23:00N 39°54' W 075°12'0 0.0
2018-Jan-25 22:30N 39°54' W 075°12'0 0.0
2018-Jan-25 22:00N 39°54' W 075°12'0 0.0
2018-Jan-25 21:30N 39°54' W 075°12'0 0.0
2018-Jan-25 21:00N 39°54' W 075°12'0 0.0
2018-Jan-25 20:30N 39°54' W 075°12'0 0.2
2018-Jan-25 20:01N 39°53' W 075°12'0 0.0
2018-Jan-25 19:30N 39°53' W 075°12'0 0.0
2018-Jan-25 19:00N 39°53' W 075°12'0 0.0
2018-Jan-25 18:30N 39°53' W 075°12'0 0.0
2018-Jan-25 18:00N 39°53' W 075°12'0 0.0
2018-Jan-25 17:30N 39°53' W 075°12'0 0.0
2018-Jan-25 17:00N 39°53' W 075°12'0 0.1
2018-Jan-25 16:30N 39°54' W 075°12'0 0.0
2018-Jan-25 16:00N 39°54' W 075°12'0 0.0
2018-Jan-25 15:30N 39°54' W 075°12'0 0.1
2018-Jan-25 15:00N 39°54' W 075°12'0 0.0
2018-Jan-25 14:30N 39°54' W 075°12'0 0.0
2018-Jan-25 14:00N 39°54' W 075°12'0 0.1
2018-Jan-25 13:30N 39°54' W 075°12'0 0.0
2018-Jan-25 13:00N 39°54' W 075°12'0 0.0
2018-Jan-25 12:30N 39°54' W 075°12'0 0.0
2018-Jan-25 12:01N 39°54' W 075°12'0 0.0
2018-Jan-25 11:30N 39°54' W 075°12'0 0.0
2018-Jan-25 11:00N 39°54' W 075°12'0 0.0
2018-Jan-25 10:30N 39°54' W 075°12'0 0.0
2018-Jan-25 10:00N 39°54' W 075°12'0 0.0
2018-Jan-25 09:30N 39°54' W 075°12'0 0.0
2018-Jan-25 09:00N 39°54' W 075°12'0 0.0
2018-Jan-25 08:30N 39°54' W 075°12'0 0.0
2018-Jan-25 08:01N 39°54' W 075°12'0 0.0
2018-Jan-25 07:30N 39°54' W 075°12'0 0.0
2018-Jan-25 07:00N 39°54' W 075°12'0 0.0
2018-Jan-25 06:30N 39°54' W 075°12'0 0.0
2018-Jan-25 06:00N 39°54' W 075°12'0 0.0
2018-Jan-25 05:30N 39°54' W 075°12'0 0.0
2018-Jan-25 05:00N 39°54' W 075°12'0 0.0
2018-Jan-25 04:30N 39°54' W 075°12'0 0.0
2018-Jan-25 04:00N 39°54' W 075°12'0 0.0
2018-Jan-25 03:30N 39°54' W 075°12'0 0.0
2018-Jan-25 03:00N 39°54' W 075°12'0 0.0
2018-Jan-25 02:30N 39°54' W 075°12'0 0.0
2018-Jan-25 02:00N 39°54' W 075°12'0 0.0
2018-Jan-25 01:30N 39°54' W 075°12'0 0.0
2018-Jan-25 01:00N 39°54' W 075°12'0 0.0
2018-Jan-25 00:30N 39°54' W 075°12'0 0.0
2018-Jan-25 00:00N 39°54' W 075°12'0 0.0
2018-Jan-24 23:30N 39°54' W 075°12'0 0.0
2018-Jan-24 22:59N 39°54' W 075°12'0 0.0
2018-Jan-24 22:30N 39°54' W 075°12'0 0.0
2018-Jan-24 22:00N 39°54' W 075°12'0 0.0
2018-Jan-24 21:30N 39°54' W 075°12'4 8.1
2018-Jan-24 21:00N 39°51' W 075°16'611.1
2018-Jan-24 20:30N 39°49' W 075°23'510.8
2018-Jan-24 20:00N 39°46' W 075°28'611.3
2018-Jan-24 19:30N 39°41' W 075°31'5 9.8
2018-Jan-24 19:00N 39°37' W 075°35'5 9.3
2018-Jan-24 18:30N 39°33' W 075°32'3 6.8
2018-Jan-24 18:00N 39°29' W 075°33'0 0.0
2018-Jan-24 17:30N 39°29' W 075°33'0 0.0
2018-Jan-24 17:00N 39°29' W 075°33'0 0.0
2018-Jan-24 16:30N 39°29' W 075°33'0 0.0
2018-Jan-24 16:00N 39°29' W 075°33'0 0.0
2018-Jan-24 15:30N 39°29' W 075°33'0 0.0
2018-Jan-24 15:00N 39°29' W 075°33'0 0.0
2018-Jan-24 14:30N 39°29' W 075°33'0 0.0
2018-Jan-24 14:00N 39°29' W 075°33'0 0.0
2018-Jan-24 13:30N 39°29' W 075°33'0 0.0
2018-Jan-24 13:00N 39°29' W 075°33'0 0.0
2018-Jan-24 12:30N 39°29' W 075°33'0 0.0
2018-Jan-24 12:00N 39°29' W 075°33'0 0.0
2018-Jan-24 11:30N 39°29' W 075°33'0 0.0
2018-Jan-24 11:00N 39°29' W 075°33'0 0.0
2018-Jan-24 10:30N 39°29' W 075°33'0 0.1
2018-Jan-24 10:00N 39°29' W 075°33'0 0.0
2018-Jan-24 09:30N 39°29' W 075°33'0 0.0
2018-Jan-24 09:00N 39°29' W 075°33'0 0.0
2018-Jan-24 08:29N 39°29' W 075°33'0 0.0
2018-Jan-24 08:00N 39°29' W 075°33'0 0.0
2018-Jan-24 07:30N 39°29' W 075°33'0 0.0
2018-Jan-24 07:00N 39°29' W 075°33'0 0.0
2018-Jan-24 06:30N 39°29' W 075°33'0 0.0
2018-Jan-24 06:00N 39°29' W 075°33'  

Dump ship's entire track history